createdAt,value
2023-01-31T00:00:21.074Z,19.40
2023-01-31T00:01:21.661Z,19.48
2023-01-31T00:02:22.320Z,19.45
2023-01-31T00:03:22.966Z,19.40
2023-01-31T00:04:23.563Z,19.45
2023-01-31T00:05:24.161Z,19.45
2023-01-31T00:06:25.615Z,19.40
2023-01-31T00:07:26.245Z,19.34
2023-01-31T00:08:26.845Z,19.44
2023-01-31T00:09:27.430Z,19.26
2023-01-31T00:10:28.025Z,19.36
2023-01-31T00:11:28.674Z,19.27
2023-01-31T00:12:29.355Z,19.26
2023-01-31T00:13:29.984Z,19.26
2023-01-31T00:14:30.586Z,19.31
2023-01-31T00:15:31.210Z,19.24
2023-01-31T00:16:31.805Z,19.26
2023-01-31T00:17:32.398Z,19.22
2023-01-31T00:18:33.009Z,19.21
2023-01-31T00:19:33.593Z,19.19
2023-01-31T00:20:34.759Z,19.22
2023-01-31T00:21:36.069Z,19.18
2023-01-31T00:22:37.167Z,19.18
2023-01-31T00:23:38.048Z,19.16
2023-01-31T00:24:39.076Z,19.15
2023-01-31T00:25:39.797Z,19.11
2023-01-31T00:26:40.490Z,19.15
2023-01-31T00:27:41.066Z,19.18
2023-01-31T00:28:41.688Z,19.07
2023-01-31T00:29:42.319Z,19.16
2023-01-31T00:30:43.063Z,19.09
2023-01-31T00:31:43.839Z,19.04
2023-01-31T00:32:45.313Z,19.09
2023-01-31T00:33:46.128Z,19.00
2023-01-31T00:34:46.771Z,19.00
2023-01-31T00:35:47.368Z,18.98
2023-01-31T00:36:47.969Z,18.96
2023-01-31T00:37:48.563Z,18.98
2023-01-31T00:38:49.159Z,18.95
2023-01-31T00:39:49.763Z,18.99
2023-01-31T00:40:50.367Z,18.88
2023-01-31T00:41:50.962Z,18.86
2023-01-31T00:42:51.555Z,18.93
2023-01-31T00:43:52.161Z,18.92
2023-01-31T00:44:52.749Z,18.90
2023-01-31T00:45:53.351Z,18.89
2023-01-31T00:46:54.002Z,18.88
2023-01-31T00:47:54.615Z,18.88
2023-01-31T00:48:55.266Z,18.84
2023-01-31T00:49:55.886Z,18.83
2023-01-31T00:50:56.514Z,18.80
2023-01-31T00:51:57.115Z,18.80
2023-01-31T00:52:57.711Z,18.75
2023-01-31T00:53:58.312Z,18.78
2023-01-31T00:54:58.925Z,18.73
2023-01-31T00:55:59.533Z,18.75
2023-01-31T00:57:00.129Z,18.77
2023-01-31T00:58:00.751Z,18.71
2023-01-31T00:59:01.437Z,18.75
2023-01-31T01:00:02.038Z,18.73
2023-01-31T01:01:02.668Z,18.75
2023-01-31T01:02:04.128Z,18.66
2023-01-31T01:03:04.786Z,18.63
2023-01-31T01:04:05.380Z,18.70
2023-01-31T01:05:06.041Z,18.63
2023-01-31T01:06:07.481Z,18.66
2023-01-31T01:07:08.073Z,18.60
2023-01-31T01:08:08.676Z,18.63
2023-01-31T01:09:09.268Z,18.65
2023-01-31T01:10:09.864Z,18.58
2023-01-31T01:11:10.467Z,18.65
2023-01-31T01:12:11.070Z,18.68
2023-01-31T01:13:11.666Z,18.60
2023-01-31T01:14:12.262Z,18.58
2023-01-31T01:15:12.862Z,18.53
2023-01-31T01:16:13.491Z,18.56
2023-01-31T01:17:14.071Z,18.63
2023-01-31T01:18:14.661Z,18.58
2023-01-31T01:19:15.278Z,18.56
2023-01-31T01:20:15.875Z,18.55
2023-01-31T01:21:16.468Z,18.45
2023-01-31T01:22:17.067Z,18.52
2023-01-31T01:23:17.679Z,18.53
2023-01-31T01:24:18.264Z,18.52
2023-01-31T01:25:19.381Z,18.41
2023-01-31T01:26:20.194Z,18.52
2023-01-31T01:27:20.833Z,18.58
2023-01-31T01:28:21.428Z,18.55
2023-01-31T01:29:22.094Z,18.58
2023-01-31T01:30:22.696Z,18.56
2023-01-31T01:31:23.329Z,18.49
2023-01-31T01:32:23.974Z,18.49
2023-01-31T01:33:24.621Z,18.45
2023-01-31T01:34:25.227Z,18.45
2023-01-31T01:35:25.819Z,18.47
2023-01-31T01:36:26.411Z,18.43
2023-01-31T01:37:27.007Z,18.38
2023-01-31T01:38:27.606Z,18.44
2023-01-31T01:39:29.056Z,18.40
2023-01-31T01:40:30.055Z,18.37
2023-01-31T01:41:30.986Z,18.41
2023-01-31T01:42:31.236Z,18.38
2023-01-31T01:43:31.889Z,18.43
2023-01-31T01:44:32.848Z,18.38
2023-01-31T01:45:33.558Z,18.40
2023-01-31T01:46:34.173Z,18.38
2023-01-31T01:47:34.785Z,18.38
2023-01-31T01:48:35.383Z,18.35
2023-01-31T01:49:36.393Z,18.37
2023-01-31T01:50:37.038Z,18.35
2023-01-31T01:51:37.616Z,18.35
2023-01-31T01:52:38.211Z,18.29
2023-01-31T01:53:38.822Z,18.35
2023-01-31T01:54:39.414Z,18.31
2023-01-31T01:55:40.814Z,18.35
2023-01-31T01:56:41.417Z,18.29
2023-01-31T01:57:42.091Z,18.29
2023-01-31T01:58:42.693Z,18.29
2023-01-31T01:59:43.288Z,18.26
2023-01-31T02:00:43.930Z,18.35
2023-01-31T02:01:44.559Z,18.25
2023-01-31T02:02:45.144Z,18.26
2023-01-31T02:03:45.746Z,18.25
2023-01-31T02:04:46.341Z,18.31
2023-01-31T02:05:46.937Z,18.25
2023-01-31T02:06:47.534Z,18.20
2023-01-31T02:07:48.129Z,18.19
2023-01-31T02:08:48.723Z,18.25
2023-01-31T02:09:50.178Z,18.20
2023-01-31T02:10:50.846Z,18.13
2023-01-31T02:11:51.446Z,18.19
2023-01-31T02:12:52.040Z,18.18
2023-01-31T02:13:52.635Z,18.19
2023-01-31T02:14:53.233Z,18.18
2023-01-31T02:15:53.836Z,18.18
2023-01-31T02:16:54.526Z,18.19
2023-01-31T02:17:55.136Z,18.20
2023-01-31T02:18:55.737Z,18.19
2023-01-31T02:19:56.331Z,18.10
2023-01-31T02:20:56.930Z,18.13
2023-01-31T02:21:57.525Z,18.11
2023-01-31T02:22:58.119Z,18.05
2023-01-31T02:23:58.759Z,18.15
2023-01-31T02:24:59.352Z,18.07
2023-01-31T02:25:59.987Z,18.08
2023-01-31T02:27:00.588Z,18.11
2023-01-31T02:28:01.215Z,18.10
2023-01-31T02:29:01.791Z,18.01
2023-01-31T02:30:02.403Z,18.13
2023-01-31T02:31:03.091Z,18.05
2023-01-31T02:32:04.553Z,18.11
2023-01-31T02:33:05.140Z,18.13
2023-01-31T02:34:05.745Z,18.07
2023-01-31T02:35:06.395Z,18.08
2023-01-31T02:36:06.988Z,18.11
2023-01-31T02:37:07.580Z,18.10
2023-01-31T02:38:08.175Z,17.94
2023-01-31T02:39:08.776Z,17.98
2023-01-31T02:40:09.436Z,18.11
2023-01-31T02:41:10.044Z,17.98
2023-01-31T02:42:10.638Z,18.01
2023-01-31T02:43:12.092Z,18.01
2023-01-31T02:44:12.734Z,17.98
2023-01-31T02:45:13.344Z,18.00
2023-01-31T02:46:13.940Z,18.01
2023-01-31T02:47:14.535Z,18.01
2023-01-31T02:48:15.135Z,17.92
2023-01-31T02:49:15.728Z,17.98
2023-01-31T02:50:16.331Z,18.00
2023-01-31T02:51:16.925Z,17.97
2023-01-31T02:52:17.526Z,17.98
2023-01-31T02:53:18.110Z,17.97
2023-01-31T02:54:18.714Z,17.95
2023-01-31T02:55:19.554Z,18.01
2023-01-31T02:56:20.651Z,17.97
2023-01-31T02:57:21.244Z,18.03
2023-01-31T02:58:21.846Z,17.92
2023-01-31T02:59:23.255Z,17.92
2023-01-31T03:00:23.868Z,17.90
2023-01-31T03:01:24.589Z,17.94
2023-01-31T03:02:25.324Z,17.95
2023-01-31T03:03:25.945Z,17.95
2023-01-31T03:04:26.596Z,17.98
2023-01-31T03:05:27.586Z,17.89
2023-01-31T03:06:28.195Z,17.95
2023-01-31T03:07:28.796Z,17.85
2023-01-31T03:08:30.197Z,17.90
2023-01-31T03:09:30.796Z,17.87
2023-01-31T03:10:31.399Z,17.82
2023-01-31T03:11:32.069Z,17.85
2023-01-31T03:12:32.954Z,17.85
2023-01-31T03:13:33.549Z,17.90
2023-01-31T03:14:34.131Z,17.86
2023-01-31T03:15:34.769Z,17.85
2023-01-31T03:16:35.427Z,17.87
2023-01-31T03:17:36.309Z,17.89
2023-01-31T03:18:36.970Z,17.83
2023-01-31T03:19:37.565Z,17.87
2023-01-31T03:20:38.154Z,17.83
2023-01-31T03:21:38.750Z,17.83
2023-01-31T03:22:39.350Z,17.90
2023-01-31T03:23:39.953Z,17.90
2023-01-31T03:24:40.570Z,17.86
2023-01-31T03:25:41.174Z,17.80
2023-01-31T03:26:41.831Z,17.89
2023-01-31T03:27:42.479Z,17.86
2023-01-31T03:28:43.169Z,17.78
2023-01-31T03:29:43.758Z,17.79
2023-01-31T03:30:44.509Z,17.78
2023-01-31T03:31:45.302Z,17.78
2023-01-31T03:32:45.860Z,17.92
2023-01-31T03:33:46.452Z,17.82
2023-01-31T03:34:47.046Z,17.86
2023-01-31T03:35:47.647Z,17.79
2023-01-31T03:36:48.245Z,17.78
2023-01-31T03:37:48.837Z,17.80
2023-01-31T03:38:49.435Z,17.72
2023-01-31T03:39:50.033Z,17.74
2023-01-31T03:40:50.636Z,17.71
2023-01-31T03:41:51.225Z,17.72
2023-01-31T03:42:51.820Z,17.71
2023-01-31T03:43:52.465Z,17.80
2023-01-31T03:44:53.065Z,17.72
2023-01-31T03:45:53.705Z,17.74
2023-01-31T03:46:54.358Z,17.78
2023-01-31T03:47:54.953Z,17.68
2023-01-31T03:48:55.548Z,17.72
2023-01-31T03:49:56.147Z,17.74
2023-01-31T03:50:56.748Z,17.72
2023-01-31T03:51:57.339Z,17.72
2023-01-31T03:52:57.941Z,17.72
2023-01-31T03:53:58.545Z,17.76
2023-01-31T03:54:59.147Z,17.72
2023-01-31T03:55:59.738Z,17.68
2023-01-31T03:57:00.340Z,17.71
2023-01-31T03:58:00.944Z,17.65
2023-01-31T03:59:01.549Z,17.71
2023-01-31T04:00:02.993Z,17.72
2023-01-31T04:01:03.589Z,17.70
2023-01-31T04:02:04.179Z,17.68
2023-01-31T04:03:04.823Z,17.70
2023-01-31T04:04:05.408Z,17.65
2023-01-31T04:05:06.000Z,17.64
2023-01-31T04:06:06.607Z,17.68
2023-01-31T04:07:08.000Z,17.70
2023-01-31T04:08:08.599Z,17.64
2023-01-31T04:09:09.250Z,17.67
2023-01-31T04:10:09.836Z,17.68
2023-01-31T04:11:10.445Z,17.64
2023-01-31T04:12:11.489Z,17.63
2023-01-31T04:13:12.611Z,17.60
2023-01-31T04:14:13.649Z,17.60
2023-01-31T04:15:13.879Z,17.57
2023-01-31T04:16:14.488Z,17.59
2023-01-31T04:17:15.077Z,17.56
2023-01-31T04:18:15.676Z,17.60
2023-01-31T04:19:16.265Z,17.59
2023-01-31T04:20:16.859Z,17.64
2023-01-31T04:21:17.462Z,17.59
2023-01-31T04:22:18.056Z,17.57
2023-01-31T04:23:18.647Z,17.65
2023-01-31T04:24:19.250Z,17.56
2023-01-31T04:25:20.189Z,17.56
2023-01-31T04:26:20.948Z,17.54
2023-01-31T04:27:21.578Z,17.51
2023-01-31T04:28:22.247Z,17.54
2023-01-31T04:29:22.852Z,17.57
2023-01-31T04:30:23.447Z,17.56
2023-01-31T04:31:24.118Z,17.48
2023-01-31T04:32:24.741Z,17.63
2023-01-31T04:33:25.332Z,17.51
2023-01-31T04:34:25.941Z,17.48
2023-01-31T04:35:26.534Z,17.48
2023-01-31T04:36:27.128Z,17.51
2023-01-31T04:37:27.731Z,17.46
2023-01-31T04:38:28.934Z,17.46
2023-01-31T04:39:29.528Z,17.41
2023-01-31T04:40:30.125Z,17.45
2023-01-31T04:41:30.736Z,17.42
2023-01-31T04:42:32.327Z,17.42
2023-01-31T04:43:33.133Z,17.48
2023-01-31T04:44:33.749Z,17.45
2023-01-31T04:45:34.346Z,17.46
2023-01-31T04:46:34.965Z,17.45
2023-01-31T04:47:35.623Z,17.42
2023-01-31T04:48:36.705Z,17.42
2023-01-31T04:49:39.169Z,17.42
2023-01-31T04:50:39.770Z,17.42
2023-01-31T04:51:40.367Z,17.42
2023-01-31T04:52:40.965Z,17.44
2023-01-31T04:53:58.125Z,17.45
2023-01-31T04:54:58.725Z,17.41
2023-01-31T04:55:59.386Z,17.33
2023-01-31T04:56:59.982Z,17.44
2023-01-31T04:58:00.573Z,17.36
2023-01-31T04:59:01.166Z,17.46
2023-01-31T05:00:01.754Z,17.30
2023-01-31T05:01:02.404Z,17.48
2023-01-31T05:02:03.031Z,17.46
2023-01-31T05:03:03.709Z,17.36
2023-01-31T05:04:04.274Z,17.34
2023-01-31T05:05:04.877Z,17.34
2023-01-31T05:06:05.738Z,17.42
2023-01-31T05:07:06.778Z,17.36
2023-01-31T05:08:07.743Z,17.42
2023-01-31T05:09:08.416Z,17.41
2023-01-31T05:10:09.050Z,17.33
2023-01-31T05:11:09.743Z,17.39
2023-01-31T05:12:10.363Z,17.39
2023-01-31T05:13:10.970Z,17.34
2023-01-31T05:14:11.570Z,17.29
2023-01-31T05:15:13.014Z,17.34
2023-01-31T05:16:13.678Z,17.29
2023-01-31T05:17:14.267Z,17.30
2023-01-31T05:18:14.861Z,17.30
2023-01-31T05:19:15.450Z,17.33
2023-01-31T05:20:16.041Z,17.33
2023-01-31T05:21:16.639Z,17.30
2023-01-31T05:22:17.231Z,17.27
2023-01-31T05:23:17.816Z,17.36
2023-01-31T05:24:18.417Z,17.34
2023-01-31T05:25:19.174Z,17.38
2023-01-31T05:26:19.934Z,17.33
2023-01-31T05:27:20.527Z,17.31
2023-01-31T05:28:21.382Z,17.29
2023-01-31T05:29:22.126Z,17.39
2023-01-31T05:30:22.785Z,17.30
2023-01-31T05:31:23.567Z,17.36
2023-01-31T05:32:24.169Z,17.39
2023-01-31T05:33:24.759Z,17.30
2023-01-31T05:34:25.375Z,17.36
2023-01-31T05:35:25.957Z,17.30
2023-01-31T05:36:26.555Z,17.31
2023-01-31T05:37:27.146Z,17.29
2023-01-31T05:38:27.729Z,17.30
2023-01-31T05:39:28.317Z,17.31
2023-01-31T05:40:28.909Z,17.26
2023-01-31T05:41:29.493Z,17.24
2023-01-31T05:42:30.091Z,17.24
2023-01-31T05:43:31.261Z,17.29
2023-01-31T05:44:32.182Z,17.29
2023-01-31T05:45:32.787Z,17.24
2023-01-31T05:46:33.386Z,17.22
2023-01-31T05:47:33.979Z,17.22
2023-01-31T05:48:34.576Z,17.22
2023-01-31T05:49:35.167Z,17.20
2023-01-31T05:50:35.755Z,17.26
2023-01-31T05:51:36.501Z,17.26
2023-01-31T05:52:37.093Z,17.26
2023-01-31T05:53:37.687Z,17.22
2023-01-31T05:54:38.330Z,17.22
2023-01-31T05:55:38.928Z,17.23
2023-01-31T05:56:39.517Z,17.29
2023-01-31T05:57:40.159Z,17.14
2023-01-31T05:58:40.753Z,17.27
2023-01-31T05:59:42.147Z,17.20
2023-01-31T06:00:42.742Z,17.24
2023-01-31T06:01:43.365Z,17.12
2023-01-31T06:02:43.947Z,17.16
2023-01-31T06:03:44.546Z,17.09
2023-01-31T06:04:45.160Z,17.12
2023-01-31T06:05:45.794Z,17.09
2023-01-31T06:06:46.377Z,17.16
2023-01-31T06:07:46.960Z,17.19
2023-01-31T06:08:47.559Z,17.19
2023-01-31T06:09:48.150Z,17.26
2023-01-31T06:10:48.748Z,17.29
2023-01-31T06:11:49.398Z,17.24
2023-01-31T06:12:50.086Z,17.14
2023-01-31T06:13:50.674Z,17.08
2023-01-31T06:14:51.266Z,17.22
2023-01-31T06:15:52.671Z,17.24
2023-01-31T06:16:53.430Z,17.19
2023-01-31T06:17:54.058Z,17.12
2023-01-31T06:18:54.637Z,17.22
2023-01-31T06:19:55.224Z,17.14
2023-01-31T06:20:55.813Z,17.19
2023-01-31T06:21:56.421Z,17.19
2023-01-31T06:22:57.351Z,17.12
2023-01-31T06:23:58.531Z,17.19
2023-01-31T06:24:58.617Z,17.14
2023-01-31T06:25:59.535Z,17.16
2023-01-31T06:27:00.118Z,17.12
2023-01-31T06:28:00.693Z,17.16
2023-01-31T06:29:01.298Z,17.16
2023-01-31T06:30:01.952Z,17.19
2023-01-31T06:31:02.855Z,17.12
2023-01-31T06:32:03.280Z,17.11
2023-01-31T06:33:03.919Z,17.16
2023-01-31T06:34:04.519Z,17.04
2023-01-31T06:35:05.966Z,17.01
2023-01-31T06:36:06.628Z,17.14
2023-01-31T06:37:07.213Z,17.08
2023-01-31T06:38:07.799Z,17.12
2023-01-31T06:46:57.623Z,17.09
2023-01-31T06:47:58.226Z,17.05
2023-01-31T06:48:58.825Z,17.08
2023-01-31T06:49:59.481Z,17.05
2023-01-31T06:51:00.098Z,17.04
2023-01-31T06:52:00.744Z,17.06
2023-01-31T06:53:01.347Z,17.11
2023-01-31T06:54:01.947Z,17.04
2023-01-31T06:55:02.555Z,17.01
2023-01-31T06:56:03.132Z,17.09
2023-01-31T06:57:03.724Z,17.09
2023-01-31T06:58:04.373Z,17.08
2023-01-31T06:59:04.960Z,17.08
2023-01-31T07:00:05.559Z,17.05
2023-01-31T07:01:06.145Z,17.04
2023-01-31T07:02:06.736Z,17.01
2023-01-31T07:03:07.321Z,17.08
2023-01-31T07:04:07.924Z,17.04
2023-01-31T07:10:14.873Z,17.08
2023-01-31T07:11:15.465Z,17.04
2023-01-31T07:12:16.052Z,17.05
2023-01-31T07:13:16.641Z,16.99
2023-01-31T07:14:17.231Z,16.96
2023-01-31T07:15:18.372Z,16.99
2023-01-31T07:16:19.249Z,16.96
2023-01-31T07:17:19.813Z,16.97
2023-01-31T07:18:20.401Z,16.99
2023-01-31T07:19:20.988Z,16.97
2023-01-31T07:20:21.585Z,16.94
2023-01-31T07:21:22.181Z,17.05
2023-01-31T07:22:22.851Z,16.97
2023-01-31T07:23:23.499Z,16.94
2023-01-31T07:24:24.108Z,16.99
2023-01-31T07:25:24.682Z,16.96
2023-01-31T07:26:25.304Z,17.04
2023-01-31T07:37:37.994Z,16.91
2023-01-31T07:38:38.591Z,16.94
2023-01-31T07:39:39.236Z,16.89
2023-01-31T07:40:39.944Z,16.91
2023-01-31T07:41:40.528Z,17.01
2023-01-31T07:42:41.193Z,16.93
2023-01-31T07:43:41.789Z,16.96
2023-01-31T07:44:42.374Z,16.86
2023-01-31T07:45:43.101Z,16.94
2023-01-31T07:46:43.710Z,16.99
2023-01-31T07:47:44.313Z,16.84
2023-01-31T07:52:16.455Z,16.97
2023-01-31T07:53:17.053Z,16.93
2023-01-31T07:54:17.658Z,16.89
2023-01-31T07:55:18.802Z,16.93
2023-01-31T07:56:19.704Z,16.94
2023-01-31T07:57:20.295Z,16.93
2023-01-31T07:58:20.992Z,16.96
2023-01-31T07:59:21.605Z,16.99
2023-01-31T08:00:22.182Z,16.99
2023-01-31T08:01:22.963Z,16.89
2023-01-31T08:02:23.613Z,16.94
2023-01-31T08:03:24.276Z,16.86
2023-01-31T08:04:24.870Z,17.01
2023-01-31T08:05:25.532Z,16.93
2023-01-31T08:06:26.125Z,16.86
2023-01-31T08:07:27.167Z,16.96
2023-01-31T08:09:53.780Z,16.93
2023-01-31T08:10:54.374Z,16.91
2023-01-31T08:11:54.975Z,16.93
2023-01-31T08:12:55.571Z,16.99
2023-01-31T08:13:56.165Z,16.84
2023-01-31T08:15:09.370Z,16.90
2023-01-31T08:16:09.965Z,16.91
2023-01-31T08:17:10.616Z,16.89
2023-01-31T08:18:11.215Z,16.86
2023-01-31T08:19:11.820Z,16.86
2023-01-31T08:20:13.211Z,16.91
2023-01-31T08:21:13.882Z,16.89
2023-01-31T08:31:41.298Z,16.89
2023-01-31T08:32:41.769Z,16.81
2023-01-31T08:33:42.422Z,16.83
2023-01-31T08:34:43.500Z,16.76
2023-01-31T08:35:44.147Z,16.89
2023-01-31T08:36:44.787Z,16.87
2023-01-31T08:37:45.402Z,16.83
2023-01-31T08:38:46.441Z,16.89
2023-01-31T08:39:47.082Z,16.84
2023-01-31T08:40:47.784Z,16.86
2023-01-31T08:41:48.376Z,16.87
2023-01-31T08:42:49.027Z,16.86
2023-01-31T08:43:58.111Z,16.87
2023-01-31T08:44:51.222Z,16.93
2023-01-31T08:45:51.816Z,16.81
2023-01-31T08:46:53.394Z,16.84
2023-01-31T08:47:53.985Z,16.79
2023-01-31T08:48:55.373Z,16.86
2023-01-31T08:49:56.006Z,16.83
2023-01-31T08:50:56.624Z,16.90
2023-01-31T08:51:57.227Z,16.90
2023-01-31T08:52:57.827Z,16.93
2023-01-31T08:53:58.426Z,16.81
2023-01-31T09:02:32.476Z,16.84
2023-01-31T09:03:33.623Z,16.91
2023-01-31T09:04:34.227Z,16.83
2023-01-31T09:05:34.828Z,16.87
2023-01-31T09:06:35.426Z,16.90
2023-01-31T09:07:36.009Z,16.89
2023-01-31T09:08:36.619Z,16.91
2023-01-31T09:09:37.226Z,16.90
2023-01-31T09:10:37.814Z,16.91
2023-01-31T09:11:38.559Z,16.96
2023-01-31T09:12:39.486Z,16.91
2023-01-31T09:13:40.084Z,16.84
2023-01-31T09:14:40.730Z,16.90
2023-01-31T09:15:41.332Z,16.86
2023-01-31T09:16:43.587Z,16.94
2023-01-31T09:17:43.533Z,16.90
2023-01-31T09:18:44.136Z,16.89
2023-01-31T09:19:44.721Z,16.90
2023-01-31T09:20:45.311Z,16.94
2023-01-31T09:21:45.903Z,16.99
2023-01-31T09:22:46.508Z,17.01
2023-01-31T09:23:47.103Z,17.02
2023-01-31T09:24:47.688Z,16.97
2023-01-31T09:25:48.598Z,16.89
2023-01-31T09:26:49.407Z,16.94
2023-01-31T09:27:50.037Z,16.87
2023-01-31T09:28:50.623Z,16.90
2023-01-31T09:29:51.233Z,16.96
2023-01-31T09:30:51.846Z,16.96
2023-01-31T09:31:52.474Z,16.96
2023-01-31T09:32:53.070Z,17.04
2023-01-31T09:33:53.669Z,17.01
2023-01-31T09:34:54.272Z,17.02
2023-01-31T09:35:54.871Z,16.99
2023-01-31T09:36:55.468Z,16.96
2023-01-31T09:37:56.064Z,16.96
2023-01-31T09:38:56.959Z,16.90
2023-01-31T09:39:57.340Z,16.93
2023-01-31T09:40:57.937Z,16.99
2023-01-31T09:41:58.533Z,17.05
2023-01-31T09:42:59.186Z,16.96
2023-01-31T09:43:59.782Z,16.87
2023-01-31T09:45:00.380Z,16.96
2023-01-31T09:46:00.988Z,16.99
2023-01-31T09:47:01.648Z,16.93
2023-01-31T09:48:02.299Z,16.91
2023-01-31T09:49:02.971Z,16.99
2023-01-31T09:50:03.571Z,17.01
2023-01-31T09:51:04.230Z,17.01
2023-01-31T09:52:04.834Z,16.99
2023-01-31T09:53:05.419Z,16.93
2023-01-31T09:54:22.598Z,16.93
2023-01-31T09:55:23.398Z,16.93
2023-01-31T09:56:24.031Z,16.94
2023-01-31T09:57:24.630Z,16.93
2023-01-31T09:58:25.224Z,16.89
2023-01-31T09:59:25.826Z,16.96
2023-01-31T10:00:26.428Z,16.84
2023-01-31T10:01:27.035Z,16.91
2023-01-31T10:02:28.307Z,16.89
2023-01-31T10:03:29.500Z,16.91
2023-01-31T10:04:29.692Z,16.94
2023-01-31T10:05:30.736Z,16.94
2023-01-31T10:06:31.717Z,16.89
2023-01-31T10:07:32.328Z,16.83
2023-01-31T10:08:33.151Z,16.91
2023-01-31T10:09:33.752Z,16.86
2023-01-31T10:10:34.357Z,16.90
2023-01-31T10:11:36.504Z,16.94
2023-01-31T10:12:36.879Z,16.93
2023-01-31T10:13:37.474Z,16.79
2023-01-31T10:14:38.076Z,16.84
2023-01-31T10:15:38.682Z,16.94
2023-01-31T10:16:39.320Z,16.93
2023-01-31T10:17:39.956Z,16.89
2023-01-31T10:18:40.575Z,16.81
2023-01-31T10:19:41.176Z,16.91
2023-01-31T10:20:41.785Z,16.93
2023-01-31T10:21:42.387Z,16.91
2023-01-31T10:22:42.999Z,16.86
2023-01-31T10:23:43.576Z,16.96
2023-01-31T10:24:44.176Z,16.93
2023-01-31T10:25:44.775Z,16.86
2023-01-31T10:26:45.609Z,16.91
2023-01-31T10:27:46.383Z,16.81
2023-01-31T10:28:46.986Z,16.83
2023-01-31T10:29:47.581Z,16.91
2023-01-31T10:30:48.192Z,16.89
2023-01-31T10:31:48.839Z,16.96
2023-01-31T10:32:49.432Z,16.90
2023-01-31T10:33:50.029Z,16.87
2023-01-31T10:34:51.478Z,16.81
2023-01-31T10:35:52.150Z,16.89
2023-01-31T10:36:52.758Z,16.91
2023-01-31T10:37:54.250Z,16.86
2023-01-31T10:38:54.849Z,16.90
2023-01-31T10:39:55.446Z,16.90
2023-01-31T10:40:56.050Z,16.83
2023-01-31T10:41:56.646Z,16.96
2023-01-31T10:42:57.249Z,16.90
2023-01-31T10:43:57.848Z,16.84
2023-01-31T10:44:59.251Z,16.94
2023-01-31T10:46:00.681Z,16.87
2023-01-31T10:47:01.307Z,16.93
2023-01-31T10:48:01.986Z,16.97
2023-01-31T10:49:02.649Z,16.86
2023-01-31T10:50:03.308Z,16.96
2023-01-31T10:51:04.005Z,16.99
2023-01-31T10:52:04.648Z,16.94
2023-01-31T10:53:05.270Z,16.94
2023-01-31T10:54:05.882Z,16.96
2023-01-31T10:55:07.315Z,16.97
2023-01-31T10:56:07.918Z,16.96
2023-01-31T10:57:09.323Z,16.94
2023-01-31T10:58:09.915Z,16.93
2023-01-31T10:59:10.510Z,16.89
2023-01-31T11:00:11.112Z,16.97
2023-01-31T11:01:11.748Z,16.94
2023-01-31T11:02:12.429Z,17.01
2023-01-31T11:03:13.031Z,16.94
2023-01-31T11:04:13.700Z,16.90
2023-01-31T11:05:14.301Z,16.87
2023-01-31T11:06:14.895Z,16.90
2023-01-31T11:07:15.497Z,16.93
2023-01-31T11:08:16.100Z,16.90
2023-01-31T11:09:16.700Z,16.87
2023-01-31T11:10:17.353Z,16.84
2023-01-31T11:11:17.975Z,16.93
2023-01-31T11:12:18.566Z,17.01
2023-01-31T11:13:19.169Z,16.99
2023-01-31T11:14:19.768Z,16.96
2023-01-31T11:15:20.377Z,16.86
2023-01-31T11:16:20.992Z,16.94
2023-01-31T11:17:21.578Z,16.89
2023-01-31T11:18:22.216Z,16.90
2023-01-31T11:19:22.878Z,16.89
2023-01-31T11:20:23.827Z,16.91
2023-01-31T11:21:24.570Z,16.90
2023-01-31T11:22:25.177Z,16.90
2023-01-31T11:23:25.831Z,16.93
2023-01-31T11:24:26.438Z,17.02
2023-01-31T11:25:27.039Z,16.94
2023-01-31T11:26:27.741Z,16.91
2023-01-31T11:27:28.355Z,16.93
2023-01-31T11:28:28.957Z,16.94
2023-01-31T11:29:29.557Z,16.91
2023-01-31T11:30:30.246Z,16.93
2023-01-31T11:31:30.927Z,16.89
2023-01-31T11:32:31.528Z,16.86
2023-01-31T11:33:32.129Z,16.94
2023-01-31T11:34:32.728Z,16.91
2023-01-31T11:35:33.426Z,16.96
2023-01-31T11:36:34.037Z,17.05
2023-01-31T11:37:34.950Z,16.86
2023-01-31T11:38:35.623Z,16.86
2023-01-31T11:39:36.221Z,16.96
2023-01-31T11:40:36.910Z,16.97
2023-01-31T11:41:37.584Z,16.99
2023-01-31T11:42:38.287Z,16.93
2023-01-31T11:43:38.883Z,16.93
2023-01-31T11:44:39.488Z,16.96
2023-01-31T11:45:40.087Z,16.94
2023-01-31T11:46:40.687Z,16.89
2023-01-31T11:47:41.302Z,16.89
2023-01-31T11:48:41.940Z,16.96
2023-01-31T11:49:42.532Z,17.01
2023-01-31T11:50:43.139Z,16.93
2023-01-31T11:51:43.727Z,16.93
2023-01-31T11:52:44.343Z,16.86
2023-01-31T11:53:44.945Z,16.94
2023-01-31T11:54:46.348Z,16.96
2023-01-31T11:55:46.946Z,16.94
2023-01-31T11:56:47.548Z,16.91
2023-01-31T11:57:48.147Z,16.96
2023-01-31T11:58:48.748Z,16.93
2023-01-31T11:59:50.151Z,16.79
2023-01-31T12:00:51.559Z,16.79
2023-01-31T12:01:52.173Z,16.93
2023-01-31T12:03:08.688Z,16.84
2023-01-31T12:04:08.032Z,16.90
2023-01-31T12:05:08.608Z,16.83
2023-01-31T12:06:09.215Z,16.89
2023-01-31T12:07:23.354Z,16.90
2023-01-31T12:08:23.953Z,16.81
2023-01-31T12:09:24.540Z,16.91
2023-01-31T12:10:25.144Z,16.90
2023-01-31T12:11:39.376Z,16.84
2023-01-31T12:12:39.978Z,16.81
2023-01-31T12:13:40.571Z,16.81
2023-01-31T12:14:41.174Z,16.86
2023-01-31T12:15:42.629Z,16.83
2023-01-31T12:16:43.313Z,16.84
2023-01-31T12:17:43.917Z,16.87
2023-01-31T12:18:44.530Z,16.83
2023-01-31T12:19:45.183Z,16.83
2023-01-31T12:20:45.790Z,16.79
2023-01-31T12:21:46.387Z,16.81
2023-01-31T12:22:47.051Z,16.83
2023-01-31T12:23:49.416Z,16.84
2023-01-31T12:27:48.723Z,16.84
2023-01-31T12:28:49.320Z,16.81
2023-01-31T12:30:03.423Z,16.78
2023-01-31T12:33:28.923Z,16.79
2023-01-31T12:34:29.555Z,16.81
2023-01-31T12:35:31.002Z,16.78
2023-01-31T12:36:31.603Z,16.78
2023-01-31T12:37:32.224Z,16.79
2023-01-31T12:38:32.928Z,16.76
2023-01-31T12:39:33.602Z,16.74
2023-01-31T12:40:34.204Z,16.74
2023-01-31T12:41:34.811Z,16.83
2023-01-31T12:42:35.402Z,16.72
2023-01-31T12:43:36.006Z,16.72
2023-01-31T12:45:04.532Z,16.74
2023-01-31T12:46:18.395Z,16.71
2023-01-31T12:47:18.986Z,16.74
2023-01-31T12:48:19.595Z,16.68
2023-01-31T12:49:20.245Z,16.78
2023-01-31T12:50:21.689Z,16.71
2023-01-31T12:51:22.296Z,16.69
2023-01-31T12:52:22.955Z,16.74
2023-01-31T12:53:23.563Z,16.69
2023-01-31T12:54:24.161Z,16.68
2023-01-31T12:55:24.761Z,16.69
2023-01-31T12:56:25.358Z,16.72
2023-01-31T12:57:25.954Z,16.74
2023-01-31T12:58:26.553Z,16.69
2023-01-31T12:59:40.363Z,16.69
2023-01-31T13:00:40.983Z,16.68
2023-01-31T13:01:41.642Z,16.68
2023-01-31T13:02:42.253Z,16.69
2023-01-31T13:03:42.859Z,16.72
2023-01-31T13:04:43.463Z,16.72
2023-01-31T13:05:44.123Z,16.74
2023-01-31T13:06:44.722Z,16.72
2023-01-31T13:07:45.335Z,16.74
2023-01-31T13:08:57.048Z,16.69
2023-01-31T13:09:47.567Z,16.72
2023-01-31T13:10:48.169Z,16.66
2023-01-31T13:11:48.786Z,16.69
2023-01-31T13:12:49.375Z,16.69
2023-01-31T13:13:49.970Z,16.65
2023-01-31T13:14:50.635Z,16.71
2023-01-31T13:15:51.240Z,16.64
2023-01-31T13:16:51.827Z,16.66
2023-01-31T13:17:52.485Z,16.72
2023-01-31T13:18:53.197Z,16.72
2023-01-31T13:19:53.784Z,16.71
2023-01-31T13:20:54.456Z,16.71
2023-01-31T13:21:55.054Z,16.65
2023-01-31T13:22:55.708Z,16.65
2023-01-31T13:23:56.308Z,16.68
2023-01-31T13:24:56.904Z,16.72
2023-01-31T13:25:57.514Z,16.74
2023-01-31T13:26:58.111Z,16.65
2023-01-31T13:27:58.713Z,16.61
2023-01-31T13:28:59.312Z,16.65
2023-01-31T13:29:59.907Z,16.58
2023-01-31T13:31:00.734Z,16.57
2023-01-31T13:32:01.444Z,16.61
2023-01-31T13:33:02.053Z,16.66
2023-01-31T13:34:02.652Z,16.66
2023-01-31T13:35:03.421Z,16.61
2023-01-31T13:36:04.858Z,16.64
2023-01-31T13:37:05.566Z,16.65
2023-01-31T13:38:06.156Z,16.64
2023-01-31T13:39:06.824Z,16.61
2023-01-31T13:40:07.459Z,16.58
2023-01-31T13:41:08.117Z,16.60
2023-01-31T13:42:08.717Z,16.64
2023-01-31T13:43:09.326Z,16.61
2023-01-31T13:44:09.925Z,16.65
2023-01-31T13:45:10.528Z,16.68
2023-01-31T13:46:11.144Z,16.68
2023-01-31T13:47:11.740Z,16.64
2023-01-31T13:48:12.334Z,16.64
2023-01-31T13:49:12.931Z,16.61
2023-01-31T13:50:13.535Z,16.61
2023-01-31T13:51:14.140Z,16.61
2023-01-31T13:52:14.735Z,16.61
2023-01-31T13:53:15.336Z,16.66
2023-01-31T13:54:15.937Z,16.60